sensor_id;sensor_type;location;lat;lon;timestamp;pressure;altitude;pressure_sealevel;temperature;humidity
54122;BME280;40029;58.708;50.190;2022-07-10T00:01:16;100095.84;;;20.45;67.56
54122;BME280;40029;58.708;50.190;2022-07-10T00:03:47;100100.00;;;20.36;67.68
54122;BME280;40029;58.708;50.190;2022-07-10T00:06:20;100095.78;;;20.34;67.34
54122;BME280;40029;58.708;50.190;2022-07-10T00:08:51;100099.72;;;20.28;67.23
54122;BME280;40029;58.708;50.190;2022-07-10T00:11:22;100090.78;;;20.18;67.46
54122;BME280;40029;58.708;50.190;2022-07-10T00:13:53;100096.56;;;20.23;68.13
54122;BME280;40029;58.708;50.190;2022-07-10T00:16:24;100102.50;;;20.27;67.86
54122;BME280;40029;58.708;50.190;2022-07-10T00:18:55;100102.59;;;20.25;67.75
54122;BME280;40029;58.708;50.190;2022-07-10T00:21:26;100109.81;;;20.23;67.74
54122;BME280;40029;58.708;50.190;2022-07-10T00:23:57;100105.34;;;20.23;67.92
54122;BME280;40029;58.708;50.190;2022-07-10T00:26:28;100106.31;;;20.22;68.39
54122;BME280;40029;58.708;50.190;2022-07-10T00:28:59;100112.53;;;20.21;68.96
54122;BME280;40029;58.708;50.190;2022-07-10T00:31:30;100105.47;;;20.22;69.25
54122;BME280;40029;58.708;50.190;2022-07-10T00:34:01;100106.81;;;20.28;69.52
54122;BME280;40029;58.708;50.190;2022-07-10T00:36:33;100099.72;;;20.28;68.88
54122;BME280;40029;58.708;50.190;2022-07-10T00:39:04;100104.22;;;20.39;68.08
54122;BME280;40029;58.708;50.190;2022-07-10T00:41:35;100109.50;;;20.39;67.72
54122;BME280;40029;58.708;50.190;2022-07-10T00:44:06;100094.84;;;20.35;67.66
54122;BME280;40029;58.708;50.190;2022-07-10T00:46:37;100098.31;;;20.35;67.66
54122;BME280;40029;58.708;50.190;2022-07-10T00:49:08;100099.03;;;20.37;67.31
54122;BME280;40029;58.708;50.190;2022-07-10T00:51:39;100095.56;;;20.37;67.48
54122;BME280;40029;58.708;50.190;2022-07-10T00:54:10;100096.06;;;20.42;67.02
54122;BME280;40029;58.708;50.190;2022-07-10T00:56:41;100098.81;;;20.40;66.96
54122;BME280;40029;58.708;50.190;2022-07-10T00:59:13;100091.38;;;20.45;66.28
54122;BME280;40029;58.708;50.190;2022-07-10T01:01:44;100094.56;;;20.51;66.11
54122;BME280;40029;58.708;50.190;2022-07-10T01:04:15;100094.56;;;20.51;66.10
54122;BME280;40029;58.708;50.190;2022-07-10T01:06:46;100099.41;;;20.57;65.63
54122;BME280;40029;58.708;50.190;2022-07-10T01:09:17;100095.69;;;20.59;65.97
54122;BME280;40029;58.708;50.190;2022-07-10T01:11:49;100069.19;;;20.48;65.81
54122;BME280;40029;58.708;50.190;2022-07-10T01:14:21;100110.78;;;20.70;65.99
54122;BME280;40029;58.708;50.190;2022-07-10T01:16:52;100111.41;;;20.74;66.06
54122;BME280;40029;58.708;50.190;2022-07-10T01:19:24;100119.09;;;20.77;66.35
54122;BME280;40029;58.708;50.190;2022-07-10T01:21:55;100124.16;;;20.80;66.62
54122;BME280;40029;58.708;50.190;2022-07-10T01:24:26;100118.44;;;20.86;66.87
54122;BME280;40029;58.708;50.190;2022-07-10T01:26:57;100116.91;;;20.94;66.24
54122;BME280;40029;58.708;50.190;2022-07-10T01:29:29;100127.13;;;20.99;66.09
54122;BME280;40029;58.708;50.190;2022-07-10T01:32:00;100123.53;;;21.00;65.72
54122;BME280;40029;58.708;50.190;2022-07-10T01:34:32;100125.59;;;21.08;66.11
54122;BME280;40029;58.708;50.190;2022-07-10T01:37:03;100126.31;;;21.10;66.33
54122;BME280;40029;58.708;50.190;2022-07-10T01:39:34;100118.97;;;21.13;66.88
54122;BME280;40029;58.708;50.190;2022-07-10T01:42:05;100131.50;;;21.22;66.83
54122;BME280;40029;58.708;50.190;2022-07-10T01:44:36;100136.13;;;21.32;66.73
54122;BME280;40029;58.708;50.190;2022-07-10T01:47:07;100132.06;;;21.39;66.78
54122;BME280;40029;58.708;50.190;2022-07-10T01:49:39;100127.50;;;21.41;66.46
54122;BME280;40029;58.708;50.190;2022-07-10T01:52:10;100134.59;;;21.40;66.45
54122;BME280;40029;58.708;50.190;2022-07-10T01:54:42;100132.91;;;21.39;66.63
54122;BME280;40029;58.708;50.190;2022-07-10T01:57:13;100142.44;;;21.42;66.87
54122;BME280;40029;58.708;50.190;2022-07-10T01:59:45;100124.09;;;21.39;66.92
54122;BME280;40029;58.708;50.190;2022-07-10T02:02:16;100126.06;;;21.37;66.87
54122;BME280;40029;58.708;50.190;2022-07-10T02:04:47;100134.47;;;21.42;66.92
54122;BME280;40029;58.708;50.190;2022-07-10T02:07:18;100139.03;;;21.40;66.97
54122;BME280;40029;58.708;50.190;2022-07-10T02:09:52;100138.09;;;21.41;66.67
54122;BME280;40029;58.708;50.190;2022-07-10T02:12:23;100134.72;;;21.39;66.70
54122;BME280;40029;58.708;50.190;2022-07-10T02:14:54;100134.72;;;21.39;66.60
54122;BME280;40029;58.708;50.190;2022-07-10T02:17:29;100131.94;;;21.40;66.60
54122;BME280;40029;58.708;50.190;2022-07-10T02:20:00;100135.09;;;21.45;66.94
54122;BME280;40029;58.708;50.190;2022-07-10T02:22:31;100132.31;;;21.47;66.67
54122;BME280;40029;58.708;50.190;2022-07-10T02:25:02;100130.38;;;21.49;66.44
54122;BME280;40029;58.708;50.190;2022-07-10T02:27:34;100127.41;;;21.54;66.57
54122;BME280;40029;58.708;50.190;2022-07-10T02:30:05;100130.53;;;21.59;66.89
54122;BME280;40029;58.708;50.190;2022-07-10T02:32:36;100132.69;;;21.65;66.77
54122;BME280;40029;58.708;50.190;2022-07-10T02:35:08;100132.56;;;21.78;66.61
54122;BME280;40029;58.708;50.190;2022-07-10T02:37:39;100130.63;;;21.91;66.40
54122;BME280;40029;58.708;50.190;2022-07-10T02:40:10;100139.56;;;22.01;65.69
54122;BME280;40029;58.708;50.190;2022-07-10T02:42:41;100142.72;;;22.17;65.48
54122;BME280;40029;58.708;50.190;2022-07-10T02:45:12;100151.59;;;22.28;64.92
54122;BME280;40029;58.708;50.190;2022-07-10T02:47:43;100152.53;;;22.38;64.58
54122;BME280;40029;58.708;50.190;2022-07-10T02:50:14;100151.06;;;22.45;63.92
54122;BME280;40029;58.708;50.190;2022-07-10T02:52:45;100140.91;;;22.50;63.36
54122;BME280;40029;58.708;50.190;2022-07-10T02:55:16;100146.81;;;22.54;63.09
54122;BME280;40029;58.708;50.190;2022-07-10T02:57:47;100152.28;;;22.52;62.66
54122;BME280;40029;58.708;50.190;2022-07-10T03:00:18;100153.34;;;22.50;62.34
54122;BME280;40029;58.708;50.190;2022-07-10T03:02:55;100155.78;;;22.53;62.62
54122;BME280;40029;58.708;50.190;2022-07-10T03:05:26;100163.81;;;22.62;62.85
54122;BME280;40029;58.708;50.190;2022-07-10T03:07:57;100166.22;;;22.65;62.53
54122;BME280;40029;58.708;50.190;2022-07-10T03:10:29;100158.25;;;22.65;62.89
54122;BME280;40029;58.708;50.190;2022-07-10T03:13:00;100162.94;;;22.73;62.89
54122;BME280;40029;58.708;50.190;2022-07-10T03:15:30;100172.28;;;22.88;62.23
54122;BME280;40029;58.708;50.190;2022-07-10T03:18:02;100163.03;;;22.94;61.78
54122;BME280;40029;58.708;50.190;2022-07-10T03:20:33;100176.44;;;23.13;61.09
54122;BME280;40029;58.708;50.190;2022-07-10T03:23:04;100178.66;;;23.29;60.99
54122;BME280;40029;58.708;50.190;2022-07-10T03:25:35;100171.06;;;23.45;60.71
54122;BME280;40029;58.708;50.190;2022-07-10T03:28:06;100172.53;;;23.59;60.26
54122;BME280;40029;58.708;50.190;2022-07-10T03:30:37;100180.78;;;23.77;59.87
54122;BME280;40029;58.708;50.190;2022-07-10T03:33:08;100156.59;;;23.90;59.21
54122;BME280;40029;58.708;50.190;2022-07-10T03:35:39;100170.94;;;24.08;58.08
54122;BME280;40029;58.708;50.190;2022-07-10T03:38:09;100165.38;;;24.21;57.24
54122;BME280;40029;58.708;50.190;2022-07-10T03:40:40;100168.50;;;24.36;56.64
54122;BME280;40029;58.708;50.190;2022-07-10T03:43:11;100173.88;;;24.46;55.69
54122;BME280;40029;58.708;50.190;2022-07-10T03:45:42;100169.44;;;24.56;55.07
54122;BME280;40029;58.708;50.190;2022-07-10T03:48:13;100171.53;;;24.62;54.39
54122;BME280;40029;58.708;50.190;2022-07-10T03:50:44;100172.25;;;24.74;53.36
54122;BME280;40029;58.708;50.190;2022-07-10T03:53:15;100173.66;;;24.78;52.95
54122;BME280;40029;58.708;50.190;2022-07-10T03:55:46;100168.06;;;24.81;52.49
54122;BME280;40029;58.708;50.190;2022-07-10T03:58:17;100161.31;;;24.77;52.47
54122;BME280;40029;58.708;50.190;2022-07-10T04:00:48;100172.09;;;24.75;52.57
54122;BME280;40029;58.708;50.190;2022-07-10T04:03:19;100174.75;;;24.75;52.84
54122;BME280;40029;58.708;50.190;2022-07-10T04:05:50;100168.06;;;24.81;52.18
54122;BME280;40029;58.708;50.190;2022-07-10T04:08:21;100175.63;;;24.85;51.26
54122;BME280;40029;58.708;50.190;2022-07-10T04:10:52;100170.41;;;24.84;50.98
54122;BME280;40029;58.708;50.190;2022-07-10T04:13:23;100178.28;;;24.85;51.08
54122;BME280;40029;58.708;50.190;2022-07-10T04:15:54;100172.66;;;24.88;51.62
54122;BME280;40029;58.708;50.190;2022-07-10T04:18:25;100173.50;;;24.99;51.70
54122;BME280;40029;58.708;50.190;2022-07-10T04:20:56;100175.34;;;25.17;50.98
54122;BME280;40029;58.708;50.190;2022-07-10T04:23:27;100181.09;;;25.23;50.93
54122;BME280;40029;58.708;50.190;2022-07-10T04:25:58;100178.53;;;25.31;50.68
54122;BME280;40029;58.708;50.190;2022-07-10T04:28:29;100177.00;;;25.38;50.39
54122;BME280;40029;58.708;50.190;2022-07-10T04:31:00;100182.47;;;25.46;51.25
54122;BME280;40029;58.708;50.190;2022-07-10T04:33:31;100180.91;;;25.53;51.44
54122;BME280;40029;58.708;50.190;2022-07-10T04:36:02;100157.88;;;25.42;51.73
54122;BME280;40029;58.708;50.190;2022-07-10T04:38:33;100175.34;;;25.74;51.00
54122;BME280;40029;58.708;50.190;2022-07-10T04:41:04;100177.59;;;25.88;50.51
54122;BME280;40029;58.708;50.190;2022-07-10T04:43:35;100184.53;;;26.09;49.62
54122;BME280;40029;58.708;50.190;2022-07-10T04:46:07;100182.91;;;26.26;49.33
54122;BME280;40029;58.708;50.190;2022-07-10T04:48:38;100172.69;;;26.39;48.34
54122;BME280;40029;58.708;50.190;2022-07-10T04:51:09;100183.72;;;26.54;47.53
54122;BME280;40029;58.708;50.190;2022-07-10T04:53:40;100182.97;;;26.61;46.62
54122;BME280;40029;58.708;50.190;2022-07-10T04:56:11;100183.13;;;26.60;46.85
54122;BME280;40029;58.708;50.190;2022-07-10T04:58:42;100188.69;;;26.66;46.98
54122;BME280;40029;58.708;50.190;2022-07-10T05:01:13;100191.06;;;26.70;46.96
54122;BME280;40029;58.708;50.190;2022-07-10T05:03:44;100193.44;;;26.73;46.09
54122;BME280;40029;58.708;50.190;2022-07-10T05:06:15;100195.97;;;26.74;46.14
54122;BME280;40029;58.708;50.190;2022-07-10T05:08:46;100200.69;;;26.80;46.50
54122;BME280;40029;58.708;50.190;2022-07-10T05:11:17;100193.63;;;26.89;45.47
54122;BME280;40029;58.708;50.190;2022-07-10T05:13:48;100199.63;;;26.91;45.44
54122;BME280;40029;58.708;50.190;2022-07-10T05:16:20;100197.13;;;26.89;44.64
54122;BME280;40029;58.708;50.190;2022-07-10T05:18:51;100210.50;;;26.89;43.47
54122;BME280;40029;58.708;50.190;2022-07-10T05:21:22;100210.94;;;26.85;43.42
54122;BME280;40029;58.708;50.190;2022-07-10T05:23:53;100208.50;;;26.74;43.81
54122;BME280;40029;58.708;50.190;2022-07-10T05:26:24;100209.53;;;26.63;44.19
54122;BME280;40029;58.708;50.190;2022-07-10T05:28:55;100211.44;;;26.53;44.46
54122;BME280;40029;58.708;50.190;2022-07-10T05:31:26;100213.44;;;26.41;44.05
54122;BME280;40029;58.708;50.190;2022-07-10T05:33:57;100211.22;;;26.36;44.30
54122;BME280;40029;58.708;50.190;2022-07-10T05:36:28;100205.50;;;26.31;45.43
54122;BME280;40029;58.708;50.190;2022-07-10T05:38:59;100214.06;;;26.35;45.92
54122;BME280;40029;58.708;50.190;2022-07-10T05:41:30;100212.06;;;26.47;45.93
54122;BME280;40029;58.708;50.190;2022-07-10T05:44:03;100221.09;;;26.63;45.71
54122;BME280;40029;58.708;50.190;2022-07-10T05:46:34;100215.38;;;26.76;45.33
54122;BME280;40029;58.708;50.190;2022-07-10T05:49:05;100212.84;;;26.92;44.48
54122;BME280;40029;58.708;50.190;2022-07-10T05:51:36;100217.06;;;27.13;44.20
54122;BME280;40029;58.708;50.190;2022-07-10T05:54:07;100209.66;;;27.25;42.64
54122;BME280;40029;58.708;50.190;2022-07-10T05:56:39;100205.44;;;27.40;42.25
54122;BME280;40029;58.708;50.190;2022-07-10T05:59:10;100213.50;;;27.48;40.87
54122;BME280;40029;58.708;50.190;2022-07-10T06:01:40;100217.81;;;27.41;40.59
54122;BME280;40029;58.708;50.190;2022-07-10T06:04:11;100209.09;;;27.39;40.60
54122;BME280;40029;58.708;50.190;2022-07-10T06:06:42;100207.41;;;27.38;41.05
54122;BME280;40029;58.708;50.190;2022-07-10T06:09:13;100206.78;;;27.44;41.21
54122;BME280;40029;58.708;50.190;2022-07-10T06:11:44;100188.63;;;27.30;40.36
54122;BME280;40029;58.708;50.190;2022-07-10T06:14:16;100210.38;;;27.53;39.57
54122;BME280;40029;58.708;50.190;2022-07-10T06:16:49;100210.94;;;27.64;39.49
54122;BME280;40029;58.708;50.190;2022-07-10T06:19:20;100206.34;;;27.57;39.37
54122;BME280;40029;58.708;50.190;2022-07-10T06:21:51;100205.53;;;27.56;39.13
54122;BME280;40029;58.708;50.190;2022-07-10T06:24:42;100214.41;;;27.75;38.70
54122;BME280;40029;58.708;50.190;2022-07-10T06:27:13;100221.00;;;27.88;38.72
54122;BME280;40029;58.708;50.190;2022-07-10T06:29:44;100215.41;;;27.82;38.79
54122;BME280;40029;58.708;50.190;2022-07-10T06:32:15;100221.91;;;28.05;38.30
54122;BME280;40029;58.708;50.190;2022-07-10T06:34:47;100219.91;;;28.07;37.25
54122;BME280;40029;58.708;50.190;2022-07-10T06:37:18;100209.22;;;28.15;36.35
54122;BME280;40029;58.708;50.190;2022-07-10T06:39:50;100205.13;;;28.29;36.43
54122;BME280;40029;58.708;50.190;2022-07-10T06:42:21;100210.69;;;28.36;36.29
54122;BME280;40029;58.708;50.190;2022-07-10T06:44:54;100214.06;;;28.54;35.85
54122;BME280;40029;58.708;50.190;2022-07-10T06:47:25;100210.41;;;28.55;35.60
54122;BME280;40029;58.708;50.190;2022-07-10T06:50:14;100208.19;;;28.43;35.71
54122;BME280;40029;58.708;50.190;2022-07-10T06:52:45;100211.78;;;28.25;35.87
54122;BME280;40029;58.708;50.190;2022-07-10T06:55:18;100212.97;;;28.31;36.24
54122;BME280;40029;58.708;50.190;2022-07-10T06:57:49;100204.94;;;28.31;35.42
54122;BME280;40029;58.708;50.190;2022-07-10T07:00:20;100200.09;;;28.34;34.86
54122;BME280;40029;58.708;50.190;2022-07-10T07:02:52;100203.78;;;28.33;34.52
54122;BME280;40029;58.708;50.190;2022-07-10T07:05:23;100203.91;;;28.24;35.04
54122;BME280;40029;58.708;50.190;2022-07-10T07:07:54;100174.66;;;27.96;34.92
54122;BME280;40029;58.708;50.190;2022-07-10T07:10:25;100210.59;;;28.20;34.49
54122;BME280;40029;58.708;50.190;2022-07-10T07:12:56;100184.13;;;28.25;34.34
54122;BME280;40029;58.708;50.190;2022-07-10T07:15:27;100209.03;;;28.43;34.88
54122;BME280;40029;58.708;50.190;2022-07-10T07:17:58;100208.88;;;28.53;34.79
54122;BME280;40029;58.708;50.190;2022-07-10T07:20:38;100211.44;;;28.71;35.38
54122;BME280;40029;58.708;50.190;2022-07-10T07:23:27;100208.97;;;28.85;35.33
54122;BME280;40029;58.708;50.190;2022-07-10T07:25:58;100193.34;;;28.64;34.35
54122;BME280;40029;58.708;50.190;2022-07-10T07:28:29;100214.97;;;28.87;33.51
54122;BME280;40029;58.708;50.190;2022-07-10T07:31:00;100210.13;;;28.91;33.06
54122;BME280;40029;58.708;50.190;2022-07-10T07:33:31;100218.69;;;28.95;32.30
54122;BME280;40029;58.708;50.190;2022-07-10T07:36:03;100225.06;;;28.94;32.09
54122;BME280;40029;58.708;50.190;2022-07-10T07:38:34;100213.19;;;28.96;32.38
54122;BME280;40029;58.708;50.190;2022-07-10T07:41:05;100230.13;;;29.05;32.27
54122;BME280;40029;58.708;50.190;2022-07-10T07:43:36;100212.19;;;28.97;32.08
54122;BME280;40029;58.708;50.190;2022-07-10T07:46:07;100229.28;;;29.12;32.33
54122;BME280;40029;58.708;50.190;2022-07-10T07:48:38;100200.47;;;29.06;31.91
54122;BME280;40029;58.708;50.190;2022-07-10T07:51:09;100220.22;;;29.30;31.59
54122;BME280;40029;58.708;50.190;2022-07-10T07:53:40;100224.94;;;29.36;31.21
54122;BME280;40029;58.708;50.190;2022-07-10T07:56:11;100223.75;;;29.38;31.20
54122;BME280;40029;58.708;50.190;2022-07-10T07:58:42;100219.41;;;29.37;30.55
54122;BME280;40029;58.708;50.190;2022-07-10T08:01:13;100223.59;;;29.48;30.35
54122;BME280;40029;58.708;50.190;2022-07-10T08:03:44;100222.59;;;29.49;30.02
54122;BME280;40029;58.708;50.190;2022-07-10T08:06:15;100219.72;;;29.51;30.32
54122;BME280;40029;58.708;50.190;2022-07-10T08:08:46;100209.50;;;29.46;31.53
54122;BME280;40029;58.708;50.190;2022-07-10T08:11:17;100210.84;;;29.67;30.77
54122;BME280;40029;58.708;50.190;2022-07-10T08:13:48;100203.78;;;29.66;30.92
54122;BME280;40029;58.708;50.190;2022-07-10T08:16:19;100204.41;;;29.84;30.97
54122;BME280;40029;58.708;50.190;2022-07-10T08:18:50;100206.22;;;30.00;30.97
54122;BME280;40029;58.708;50.190;2022-07-10T08:21:21;100206.84;;;30.18;30.88
54122;BME280;40029;58.708;50.190;2022-07-10T08:23:53;100216.38;;;30.29;30.60
54122;BME280;40029;58.708;50.190;2022-07-10T08:26:24;100212.22;;;30.49;30.24
54122;BME280;40029;58.708;50.190;2022-07-10T08:28:55;100218.00;;;30.69;30.28
54122;BME280;40029;58.708;50.190;2022-07-10T08:31:26;100207.41;;;30.76;29.22
54122;BME280;40029;58.708;50.190;2022-07-10T08:33:57;100201.34;;;30.74;29.26
54122;BME280;40029;58.708;50.190;2022-07-10T08:36:28;100223.34;;;30.77;30.55
54122;BME280;40029;58.708;50.190;2022-07-10T08:38:59;100216.00;;;30.94;30.17
54122;BME280;40029;58.708;50.190;2022-07-10T08:41:31;100225.09;;;30.93;28.99
54122;BME280;40029;58.708;50.190;2022-07-10T08:44:02;100199.50;;;30.74;29.58
54122;BME280;40029;58.708;50.190;2022-07-10T08:46:33;100215.84;;;30.65;29.65
54122;BME280;40029;58.708;50.190;2022-07-10T08:49:08;100214.41;;;30.46;29.59
54122;BME280;40029;58.708;50.190;2022-07-10T08:54:15;100217.59;;;30.18;29.99
54122;BME280;40029;58.708;50.190;2022-07-10T08:56:48;100216.22;;;30.22;30.35
54122;BME280;40029;58.708;50.190;2022-07-10T08:59:19;100220.69;;;30.38;30.58
54122;BME280;40029;58.708;50.190;2022-07-10T09:01:51;100173.94;;;30.16;29.85
54122;BME280;40029;58.708;50.190;2022-07-10T09:04:26;100209.91;;;30.46;30.05
54122;BME280;40029;58.708;50.190;2022-07-10T09:06:57;100215.16;;;30.62;28.81
54122;BME280;40029;58.708;50.190;2022-07-10T09:09:28;100175.34;;;30.35;28.91
54122;BME280;40029;58.708;50.190;2022-07-10T09:11:59;100211.69;;;30.54;28.53
54122;BME280;40029;58.708;50.190;2022-07-10T09:14:30;100213.16;;;30.65;28.45
54122;BME280;40029;58.708;50.190;2022-07-10T09:17:03;100221.00;;;30.74;27.85
54122;BME280;40029;58.708;50.190;2022-07-10T09:19:34;100221.22;;;30.73;27.75
54122;BME280;40029;58.708;50.190;2022-07-10T09:22:09;100216.56;;;30.90;27.20
54122;BME280;40029;58.708;50.190;2022-07-10T09:24:45;100213.84;;;31.12;27.05
54122;BME280;40029;58.708;50.190;2022-07-10T09:27:17;100216.53;;;31.12;27.81
54122;BME280;40029;58.708;50.190;2022-07-10T09:29:49;100209.78;;;31.17;28.63
54122;BME280;40029;58.708;50.190;2022-07-10T09:32:25;100214.25;;;31.24;27.71
54122;BME280;40029;58.708;50.190;2022-07-10T09:34:58;100211.50;;;31.09;27.35
54122;BME280;40029;58.708;50.190;2022-07-10T09:37:48;100214.88;;;30.89;27.20
54122;BME280;40029;58.708;50.190;2022-07-10T09:40:19;100210.34;;;30.89;27.71
54122;BME280;40029;58.708;50.190;2022-07-10T09:42:50;100208.81;;;31.09;27.09
54122;BME280;40029;58.708;50.190;2022-07-10T09:45:21;100219.06;;;31.14;27.02
54122;BME280;40029;58.708;50.190;2022-07-10T09:50:34;100204.38;;;31.17;26.03
54122;BME280;40029;58.708;50.190;2022-07-10T09:53:07;100204.09;;;31.34;26.76
54122;BME280;40029;58.708;50.190;2022-07-10T09:55:41;100200.50;;;31.42;25.91
54122;BME280;40029;58.708;50.190;2022-07-10T09:58:15;100217.13;;;31.46;26.16
54122;BME280;40029;58.708;50.190;2022-07-10T10:00:48;100212.09;;;31.43;25.90
54122;BME280;40029;58.708;50.190;2022-07-10T10:03:20;100214.72;;;31.51;26.97
54122;BME280;40029;58.708;50.190;2022-07-10T10:05:53;100210.47;;;31.56;25.61
54122;BME280;40029;58.708;50.190;2022-07-10T10:08:27;100216.03;;;31.55;27.20
54122;BME280;40029;58.708;50.190;2022-07-10T10:11:01;100214.97;;;31.41;26.14
54122;BME280;40029;58.708;50.190;2022-07-10T10:13:34;100216.16;;;31.39;26.22
54122;BME280;40029;58.708;50.190;2022-07-10T10:16:06;100211.94;;;31.44;26.23
54122;BME280;40029;58.708;50.190;2022-07-10T10:18:40;100212.66;;;31.38;26.25
54122;BME280;40029;58.708;50.190;2022-07-10T10:21:33;100209.03;;;31.31;26.56
54122;BME280;40029;58.708;50.190;2022-07-10T10:24:05;100216.53;;;31.12;27.22
54122;BME280;40029;58.708;50.190;2022-07-10T10:26:37;100209.00;;;31.08;27.15
54122;BME280;40029;58.708;50.190;2022-07-10T10:29:09;100217.63;;;31.03;27.91
54122;BME280;40029;58.708;50.190;2022-07-10T10:31:41;100210.22;;;31.05;28.44
54122;BME280;40029;58.708;50.190;2022-07-10T10:34:13;100206.03;;;31.03;28.35
54122;BME280;40029;58.708;50.190;2022-07-10T10:36:47;100188.13;;;30.87;28.92
54122;BME280;40029;58.708;50.190;2022-07-10T10:39:19;100211.41;;;31.03;28.31
54122;BME280;40029;58.708;50.190;2022-07-10T10:41:51;100219.66;;;31.01;28.29
54122;BME280;40029;58.708;50.190;2022-07-10T10:44:24;100215.28;;;31.00;28.02
54122;BME280;40029;58.708;50.190;2022-07-10T10:46:58;100211.97;;;31.13;27.68
54122;BME280;40029;58.708;50.190;2022-07-10T10:52:22;100207.63;;;31.12;28.21
54122;BME280;40029;58.708;50.190;2022-07-10T11:00:04;100212.78;;;31.59;27.03
54122;BME280;40029;58.708;50.190;2022-07-10T11:02:38;100189.00;;;31.63;27.08
54122;BME280;40029;58.708;50.190;2022-07-10T11:10:31;100206.13;;;32.66;25.37
54122;BME280;40029;58.708;50.190;2022-07-10T11:20:46;100205.59;;;33.41;23.94
54122;BME280;40029;58.708;50.190;2022-07-10T11:26:18;100181.00;;;33.29;23.89
54122;BME280;40029;58.708;50.190;2022-07-10T11:28:57;100185.63;;;33.64;23.88
54122;BME280;40029;58.708;50.190;2022-07-10T11:31:28;100178.03;;;33.80;22.92
54122;BME280;40029;58.708;50.190;2022-07-10T11:34:00;100187.31;;;33.99;21.99
54122;BME280;40029;58.708;50.190;2022-07-10T11:36:31;100190.72;;;33.80;22.45
54122;BME280;40029;58.708;50.190;2022-07-10T11:39:07;100199.56;;;33.61;22.60
54122;BME280;40029;58.708;50.190;2022-07-10T11:41:46;100188.59;;;33.69;21.74
54122;BME280;40029;58.708;50.190;2022-07-10T11:44:18;100197.16;;;33.79;21.10
54122;BME280;40029;58.708;50.190;2022-07-10T11:46:51;100198.19;;;33.78;21.18
54122;BME280;40029;58.708;50.190;2022-07-10T11:49:25;100186.94;;;34.50;20.72
54122;BME280;40029;58.708;50.190;2022-07-10T11:52:02;100189.94;;;35.09;19.58
54122;BME280;40029;58.708;50.190;2022-07-10T11:54:34;100187.00;;;35.63;18.18
54122;BME280;40029;58.708;50.190;2022-07-10T11:57:06;100182.44;;;35.57;17.99
54122;BME280;40029;58.708;50.190;2022-07-10T11:59:41;100172.84;;;35.08;19.42
54122;BME280;40029;58.708;50.190;2022-07-10T12:02:22;100180.28;;;34.60;19.83
54122;BME280;40029;58.708;50.190;2022-07-10T12:04:53;100177.53;;;33.98;20.50
54122;BME280;40029;58.708;50.190;2022-07-10T12:07:24;100175.91;;;33.69;21.57
54122;BME280;40029;58.708;50.190;2022-07-10T12:09:55;100184.19;;;33.40;22.90
54122;BME280;40029;58.708;50.190;2022-07-10T12:12:26;100177.22;;;33.24;23.93
54122;BME280;40029;58.708;50.190;2022-07-10T12:14:57;100179.78;;;33.95;23.90
54122;BME280;40029;58.708;50.190;2022-07-10T12:17:28;100172.38;;;34.58;21.55
54122;BME280;40029;58.708;50.190;2022-07-10T12:20:00;100171.31;;;34.66;20.37
54122;BME280;40029;58.708;50.190;2022-07-10T12:22:31;100174.09;;;35.39;19.17
54122;BME280;40029;58.708;50.190;2022-07-10T12:25:02;100179.06;;;35.68;18.76
54122;BME280;40029;58.708;50.190;2022-07-10T12:27:39;100184.53;;;35.48;18.44
54122;BME280;40029;58.708;50.190;2022-07-10T12:30:10;100175.16;;;34.98;19.27
54122;BME280;40029;58.708;50.190;2022-07-10T12:32:42;100177.13;;;34.49;19.89
54122;BME280;40029;58.708;50.190;2022-07-10T12:35:13;100177.41;;;34.13;21.23
54122;BME280;40029;58.708;50.190;2022-07-10T12:37:48;100180.41;;;33.90;22.19
54122;BME280;40029;58.708;50.190;2022-07-10T12:40:33;100174.94;;;33.83;22.85
54122;BME280;40029;58.708;50.190;2022-07-10T12:43:04;100178.94;;;33.59;22.72
54122;BME280;40029;58.708;50.190;2022-07-10T12:45:37;100182.25;;;33.27;22.23
54122;BME280;40029;58.708;50.190;2022-07-10T12:48:21;100162.72;;;33.03;23.44
54122;BME280;40029;58.708;50.190;2022-07-10T12:50:53;100171.47;;;33.33;23.38
54122;BME280;40029;58.708;50.190;2022-07-10T12:53:24;100173.22;;;34.11;23.66
54122;BME280;40029;58.708;50.190;2022-07-10T12:55:55;100177.66;;;34.99;22.19
54122;BME280;40029;58.708;50.190;2022-07-10T12:58:26;100166.16;;;35.70;19.89
54122;BME280;40029;58.708;50.190;2022-07-10T13:00:57;100163.25;;;36.23;17.50
54122;BME280;40029;58.708;50.190;2022-07-10T13:03:28;100164.81;;;36.51;16.10
54122;BME280;40029;58.708;50.190;2022-07-10T13:06:00;100165.44;;;37.10;16.71
54122;BME280;40029;58.708;50.190;2022-07-10T13:08:44;100154.59;;;37.53;15.29
54122;BME280;40029;58.708;50.190;2022-07-10T13:11:16;100157.72;;;37.93;15.06
54122;BME280;40029;58.708;50.190;2022-07-10T13:13:47;100169.66;;;37.56;15.26
54122;BME280;40029;58.708;50.190;2022-07-10T13:16:18;100157.56;;;37.88;14.31
54122;BME280;40029;58.708;50.190;2022-07-10T13:18:49;100164.75;;;38.31;15.38
54122;BME280;40029;58.708;50.190;2022-07-10T13:21:20;100162.28;;;38.60;15.20
54122;BME280;40029;58.708;50.190;2022-07-10T13:23:51;100162.53;;;38.88;15.45
54122;BME280;40029;58.708;50.190;2022-07-10T13:26:22;100157.56;;;38.55;14.50
54122;BME280;40029;58.708;50.190;2022-07-10T13:28:53;100160.16;;;38.50;13.48
54122;BME280;40029;58.708;50.190;2022-07-10T13:31:24;100156.19;;;37.97;14.61
54122;BME280;40029;58.708;50.190;2022-07-10T13:33:55;100158.00;;;37.23;15.99